createdAt,value
2018-07-16T00:00:43.113Z,47.32
2018-07-16T00:03:12.367Z,46.80
2018-07-16T00:05:41.487Z,47.58
2018-07-16T00:08:10.395Z,48.32
2018-07-16T00:10:39.242Z,48.39
2018-07-16T00:13:08.073Z,47.72
2018-07-16T00:15:37.020Z,48.03
2018-07-16T00:18:06.024Z,48.44
2018-07-16T00:20:34.829Z,48.39
2018-07-16T00:23:03.976Z,48.18
2018-07-16T00:25:32.834Z,48.63
2018-07-16T00:28:02.011Z,48.75
2018-07-16T00:30:31.258Z,48.64
2018-07-16T00:33:00.410Z,49.12
2018-07-16T00:35:29.657Z,48.86
2018-07-16T00:37:58.906Z,47.92
2018-07-16T00:40:27.988Z,48.57
2018-07-16T00:42:57.148Z,48.66
2018-07-16T00:45:25.870Z,47.65
2018-07-16T00:47:54.886Z,48.17
2018-07-16T00:50:24.010Z,47.05
2018-07-16T00:52:53.224Z,47.95
2018-07-16T00:55:22.398Z,47.03
2018-07-16T00:57:51.506Z,47.68
2018-07-16T01:00:20.794Z,47.96
2018-07-16T01:02:49.660Z,48.39
2018-07-16T01:05:18.920Z,48.12
2018-07-16T01:07:48.033Z,48.44
2018-07-16T01:10:17.354Z,47.68
2018-07-16T01:12:46.267Z,47.94
2018-07-16T01:15:15.367Z,48.85
2018-07-16T01:17:44.510Z,48.99
2018-07-16T01:20:13.362Z,49.14
2018-07-16T01:22:42.382Z,48.94
2018-07-16T01:25:11.179Z,48.94
2018-07-16T01:27:40.178Z,48.93
2018-07-16T01:30:09.499Z,49.87
2018-07-16T01:32:38.618Z,49.36
2018-07-16T01:35:07.858Z,48.90
2018-07-16T01:37:37.608Z,49.71
2018-07-16T01:40:06.603Z,49.65
2018-07-16T01:42:35.638Z,49.94
2018-07-16T01:45:04.918Z,50.03
2018-07-16T01:47:34.075Z,48.66
2018-07-16T01:50:03.088Z,49.42
2018-07-16T01:52:32.122Z,49.63
2018-07-16T01:55:01.215Z,50.52
2018-07-16T01:57:30.218Z,49.88
2018-07-16T01:59:59.362Z,49.79
2018-07-16T02:02:28.408Z,51.11
2018-07-16T02:04:57.195Z,50.01
2018-07-16T02:07:26.018Z,50.56
2018-07-16T02:09:55.189Z,50.89
2018-07-16T02:12:24.254Z,50.25
2018-07-16T02:14:53.411Z,50.45
2018-07-16T02:17:22.572Z,50.93
2018-07-16T02:19:51.759Z,51.19
2018-07-16T02:22:21.143Z,50.49
2018-07-16T02:24:50.249Z,51.00
2018-07-16T02:27:19.496Z,50.94
2018-07-16T02:29:48.501Z,50.83
2018-07-16T02:32:17.623Z,51.34
2018-07-16T02:34:46.802Z,50.69
2018-07-16T02:37:16.047Z,51.08
2018-07-16T02:39:45.379Z,50.75
2018-07-16T02:42:14.445Z,50.81
2018-07-16T02:44:43.256Z,51.05
2018-07-16T02:47:12.672Z,50.42
2018-07-16T02:49:41.537Z,51.32
2018-07-16T02:52:10.851Z,50.45
2018-07-16T02:54:39.950Z,50.29
2018-07-16T02:57:09.218Z,50.95
2018-07-16T02:59:38.034Z,51.03
2018-07-16T03:02:07.234Z,49.93
2018-07-16T03:04:35.953Z,50.20
2018-07-16T03:07:05.005Z,50.64
2018-07-16T03:09:34.060Z,50.11
2018-07-16T03:12:03.302Z,50.37
2018-07-16T03:14:32.051Z,49.84
2018-07-16T03:17:01.281Z,50.16
2018-07-16T03:19:30.535Z,51.15
2018-07-16T03:21:59.412Z,51.09
2018-07-16T03:24:28.735Z,51.37
2018-07-16T03:26:58.177Z,51.31
2018-07-16T03:29:27.364Z,51.65
2018-07-16T03:31:56.616Z,52.02
2018-07-16T03:34:25.429Z,52.72
2018-07-16T03:36:54.563Z,52.50
2018-07-16T03:39:23.429Z,52.83
2018-07-16T03:41:52.243Z,52.82
2018-07-16T03:44:21.366Z,52.81
2018-07-16T03:46:50.654Z,53.43
2018-07-16T03:49:20.011Z,53.31
2018-07-16T03:51:49.270Z,52.88
2018-07-16T03:54:18.220Z,53.00
2018-07-16T03:56:47.071Z,53.20
2018-07-16T03:59:16.142Z,53.40
2018-07-16T04:01:45.271Z,53.31
2018-07-16T04:04:14.315Z,52.89
2018-07-16T04:06:43.521Z,53.24
2018-07-16T04:09:12.431Z,52.97
2018-07-16T04:11:41.476Z,53.00
2018-07-16T04:14:10.662Z,53.35
2018-07-16T04:16:39.802Z,53.33
2018-07-16T04:19:09.048Z,53.70
2018-07-16T04:21:38.318Z,53.78
2018-07-16T04:24:07.146Z,52.41
2018-07-16T04:26:36.130Z,53.58
2018-07-16T04:29:05.202Z,53.56
2018-07-16T04:31:34.264Z,52.96
2018-07-16T04:34:03.542Z,52.17
2018-07-16T04:36:32.543Z,51.69
2018-07-16T04:39:01.854Z,51.96
2018-07-16T04:41:30.883Z,53.03
2018-07-16T04:43:59.928Z,52.26
2018-07-16T04:46:29.068Z,53.21
2018-07-16T04:48:58.162Z,52.02
2018-07-16T04:51:27.269Z,51.99
2018-07-16T04:56:34.115Z,53.33
2018-07-16T04:59:03.297Z,53.20
2018-07-16T05:01:32.513Z,52.94
2018-07-16T05:04:01.660Z,52.33
2018-07-16T05:06:30.704Z,52.19
2018-07-16T05:08:59.769Z,51.87
2018-07-16T05:11:28.891Z,52.46
2018-07-16T05:13:57.795Z,52.81
2018-07-16T05:16:27.011Z,52.16
2018-07-16T05:18:56.044Z,50.95
2018-07-16T05:21:25.141Z,51.57
2018-07-16T05:23:54.443Z,52.32
2018-07-16T05:26:23.798Z,51.13
2018-07-16T05:28:52.888Z,51.92
2018-07-16T05:31:21.653Z,50.22
2018-07-16T05:33:50.957Z,52.11
2018-07-16T05:36:20.076Z,52.41
2018-07-16T05:38:49.269Z,50.70
2018-07-16T05:41:18.409Z,51.03
2018-07-16T05:43:47.956Z,51.91
2018-07-16T05:46:17.017Z,50.87
2018-07-16T05:48:45.928Z,49.93
2018-07-16T05:51:14.769Z,50.30
2018-07-16T05:53:43.588Z,51.39
2018-07-16T05:56:12.718Z,51.30
2018-07-16T05:58:41.731Z,50.40
2018-07-16T06:01:10.854Z,50.63
2018-07-16T06:03:39.746Z,49.72
2018-07-16T06:06:08.734Z,49.21
2018-07-16T06:08:38.112Z,50.62
2018-07-16T06:11:07.255Z,49.36
2018-07-16T06:13:36.168Z,50.64
2018-07-16T06:16:05.415Z,50.17
2018-07-16T06:18:34.211Z,50.25
2018-07-16T06:21:03.551Z,50.43
2018-07-16T06:23:32.699Z,49.41
2018-07-16T06:26:01.630Z,50.52
2018-07-16T06:28:30.677Z,50.97
2018-07-16T06:30:59.476Z,48.35
2018-07-16T06:33:28.596Z,48.89
2018-07-16T06:35:57.526Z,48.79
2018-07-16T06:38:26.539Z,49.31
2018-07-16T06:40:55.877Z,48.46
2018-07-16T06:43:24.841Z,49.78
2018-07-16T06:45:53.665Z,48.28
2018-07-16T06:48:22.909Z,48.83
2018-07-16T06:50:52.320Z,49.03
2018-07-16T06:53:21.115Z,48.97
2018-07-16T06:55:50.243Z,49.40
2018-07-16T06:58:19.363Z,49.29
2018-07-16T07:00:48.266Z,48.52
2018-07-16T07:03:17.479Z,48.06
2018-07-16T07:05:46.718Z,48.17
2018-07-16T07:08:15.646Z,48.00
2018-07-16T07:10:44.830Z,48.42
2018-07-16T07:13:13.897Z,47.27
2018-07-16T07:15:42.855Z,46.32
2018-07-16T07:18:12.284Z,47.50
2018-07-16T07:20:41.359Z,45.55
2018-07-16T07:23:10.360Z,46.32
2018-07-16T07:25:39.286Z,46.06
2018-07-16T07:28:09.496Z,46.23
2018-07-16T07:30:38.499Z,46.18
2018-07-16T07:33:07.737Z,44.59
2018-07-16T07:35:37.020Z,45.03
2018-07-16T07:38:05.932Z,44.21
2018-07-16T07:40:34.906Z,44.60
2018-07-16T07:43:03.822Z,45.28
2018-07-16T07:45:32.769Z,43.12
2018-07-16T07:48:01.724Z,43.38
2018-07-16T07:50:30.864Z,43.11
2018-07-16T07:52:59.973Z,41.72
2018-07-16T07:55:28.928Z,43.30
2018-07-16T07:57:58.205Z,43.92
2018-07-16T08:00:27.286Z,43.93
2018-07-16T08:02:56.476Z,41.47
2018-07-16T08:05:25.609Z,42.32
2018-07-16T08:07:54.887Z,42.74
2018-07-16T08:10:24.258Z,41.49
2018-07-16T08:12:53.222Z,42.07
2018-07-16T08:15:22.443Z,40.39
2018-07-16T08:17:51.568Z,41.65
2018-07-16T08:20:20.803Z,41.23
2018-07-16T08:22:49.707Z,40.29
2018-07-16T08:25:18.946Z,39.44
2018-07-16T08:27:47.734Z,40.52
2018-07-16T08:30:17.070Z,38.91
2018-07-16T08:32:46.448Z,38.16
2018-07-16T08:35:15.673Z,38.51
2018-07-16T08:37:44.809Z,38.39
2018-07-16T08:40:14.012Z,38.85
2018-07-16T08:42:43.040Z,39.24
2018-07-16T08:45:12.336Z,37.87
2018-07-16T08:47:41.504Z,39.49
2018-07-16T08:50:10.602Z,38.65
2018-07-16T08:52:39.614Z,39.89
2018-07-16T08:55:08.368Z,37.44
2018-07-16T08:57:37.591Z,38.50
2018-07-16T09:00:06.779Z,36.07
2018-07-16T09:02:36.034Z,36.85
2018-07-16T09:05:05.364Z,35.35
2018-07-16T09:07:34.770Z,36.22
2018-07-16T09:10:04.426Z,36.41
2018-07-16T09:12:33.581Z,34.87
2018-07-16T09:15:02.529Z,35.77
2018-07-16T09:17:31.503Z,35.84
2018-07-16T09:20:00.579Z,35.57
2018-07-16T09:22:29.815Z,34.03
2018-07-16T09:24:58.671Z,36.01
2018-07-16T09:27:27.528Z,33.83
2018-07-16T09:29:56.742Z,34.27
2018-07-16T09:32:25.908Z,33.14
2018-07-16T09:34:55.121Z,33.62
2018-07-16T09:37:24.373Z,32.72
2018-07-16T09:39:53.138Z,32.16
2018-07-16T09:42:22.381Z,31.48
2018-07-16T09:44:51.994Z,30.47
2018-07-16T09:47:21.003Z,29.24
2018-07-16T09:49:50.116Z,27.69
2018-07-16T09:52:19.126Z,28.17
2018-07-16T09:54:48.270Z,27.10
2018-07-16T09:57:17.328Z,27.88
2018-07-16T09:59:46.413Z,27.62
2018-07-16T10:02:17.166Z,25.51
2018-07-16T10:04:47.198Z,23.95
2018-07-16T10:07:16.407Z,24.02
2018-07-16T10:09:45.726Z,22.94
2018-07-16T10:12:14.871Z,21.51
2018-07-16T10:14:43.814Z,21.49
2018-07-16T10:17:12.874Z,21.55
2018-07-16T10:19:41.953Z,21.17
2018-07-16T10:22:11.022Z,19.83
2018-07-16T10:24:40.130Z,19.42
2018-07-16T10:27:09.305Z,18.16
2018-07-16T10:29:38.157Z,17.86
2018-07-16T10:32:07.447Z,17.28
2018-07-16T10:34:36.593Z,17.21
2018-07-16T10:37:05.737Z,18.38
2018-07-16T10:39:34.950Z,16.46
2018-07-16T10:42:04.275Z,16.57
2018-07-16T10:44:33.083Z,17.11
2018-07-16T10:47:02.319Z,17.49
2018-07-16T10:49:31.741Z,17.15
2018-07-16T10:52:01.039Z,16.54
2018-07-16T10:54:30.153Z,16.97
2018-07-16T10:56:59.348Z,15.22
2018-07-16T10:59:28.528Z,16.69
2018-07-16T11:01:57.908Z,15.38
2018-07-16T11:04:26.958Z,14.63
2018-07-16T11:06:56.001Z,15.26
2018-07-16T11:09:25.023Z,15.65
2018-07-16T11:11:54.336Z,15.74
2018-07-16T11:14:23.617Z,16.23
2018-07-16T11:16:52.798Z,16.56
2018-07-16T11:19:21.875Z,16.78
2018-07-16T11:21:50.823Z,17.33
2018-07-16T11:24:19.565Z,18.62
2018-07-16T11:26:48.827Z,18.08
2018-07-16T11:29:17.586Z,17.55
2018-07-16T11:31:46.654Z,18.05
2018-07-16T11:34:15.834Z,17.71
2018-07-16T11:36:44.885Z,17.15
2018-07-16T11:39:13.748Z,17.91
2018-07-16T11:41:42.970Z,18.62
2018-07-16T11:44:11.926Z,17.60
2018-07-16T11:46:41.059Z,17.26
2018-07-16T11:49:10.189Z,17.75
2018-07-16T11:51:39.403Z,17.55
2018-07-16T11:54:08.491Z,16.31
2018-07-16T11:56:37.487Z,15.50
2018-07-16T11:59:07.132Z,14.92
2018-07-16T12:01:36.227Z,14.89
2018-07-16T12:04:05.191Z,14.02
2018-07-16T12:06:34.364Z,14.14
2018-07-16T12:09:03.814Z,13.95
2018-07-16T12:11:32.951Z,14.28
2018-07-16T12:14:02.214Z,14.27
2018-07-16T12:16:31.282Z,13.83
2018-07-16T12:19:00.398Z,14.30
2018-07-16T12:21:29.671Z,14.72
2018-07-16T12:23:58.919Z,15.40
2018-07-16T12:26:27.674Z,15.08
2018-07-16T12:28:56.727Z,15.12
2018-07-16T12:31:25.762Z,13.46
2018-07-16T12:33:54.862Z,14.90
2018-07-16T12:36:23.956Z,15.43
2018-07-16T12:38:52.964Z,14.63
2018-07-16T12:41:21.933Z,15.67
2018-07-16T12:43:50.840Z,15.65
2018-07-16T12:46:20.155Z,15.57
2018-07-16T12:48:49.302Z,14.53
2018-07-16T12:51:18.432Z,14.87
2018-07-16T12:53:47.517Z,14.76
2018-07-16T12:56:16.335Z,14.73
2018-07-16T12:58:45.505Z,15.06
2018-07-16T13:01:14.677Z,16.13
2018-07-16T13:03:43.643Z,16.99
2018-07-16T13:06:13.011Z,16.52
2018-07-16T13:08:41.763Z,16.63
2018-07-16T13:11:11.057Z,16.26
2018-07-16T13:13:40.139Z,16.07
2018-07-16T13:16:09.195Z,16.35
2018-07-16T13:18:38.559Z,16.06
2018-07-16T13:21:07.691Z,17.78
2018-07-16T13:23:36.766Z,17.54
2018-07-16T13:26:05.891Z,18.71
2018-07-16T13:28:34.730Z,17.25
2018-07-16T13:31:03.778Z,17.26
2018-07-16T13:33:32.542Z,17.28
2018-07-16T13:36:01.887Z,17.25
2018-07-16T13:38:31.003Z,18.05
2018-07-16T13:41:00.198Z,17.73
2018-07-16T13:43:29.077Z,17.34
2018-07-16T13:45:58.065Z,16.32
2018-07-16T13:48:26.980Z,16.32
2018-07-16T13:50:56.207Z,16.52
2018-07-16T13:53:25.507Z,17.33
2018-07-16T13:55:54.671Z,16.43
2018-07-16T13:58:23.790Z,17.33
2018-07-16T14:00:52.956Z,18.04
2018-07-16T14:03:22.108Z,17.64
2018-07-16T14:05:51.343Z,17.90
2018-07-16T14:08:20.451Z,17.74
2018-07-16T14:10:49.634Z,18.77
2018-07-16T14:13:18.382Z,18.78
2018-07-16T14:15:47.603Z,17.97
2018-07-16T14:18:16.859Z,18.64
2018-07-16T14:20:46.063Z,19.42
2018-07-16T14:23:15.262Z,19.95
2018-07-16T14:25:44.468Z,20.79
2018-07-16T14:28:13.677Z,21.06
2018-07-16T14:30:42.599Z,20.93
2018-07-16T14:33:11.836Z,21.50
2018-07-16T14:35:41.105Z,22.64
2018-07-16T14:38:10.242Z,22.66
2018-07-16T14:40:39.533Z,23.74
2018-07-16T14:43:08.761Z,22.56
2018-07-16T14:45:38.028Z,22.98
2018-07-16T14:48:07.091Z,23.77
2018-07-16T14:50:36.339Z,23.89
2018-07-16T14:53:05.654Z,22.73
2018-07-16T14:55:34.822Z,23.27
2018-07-16T14:58:03.702Z,23.92
2018-07-16T15:00:32.566Z,23.72
2018-07-16T15:03:01.794Z,23.52
2018-07-16T15:05:30.988Z,24.62
2018-07-16T15:08:00.336Z,23.84
2018-07-16T15:10:29.579Z,24.73
2018-07-16T15:12:58.755Z,25.09
2018-07-16T15:15:27.738Z,24.50
2018-07-16T15:17:56.658Z,24.26
2018-07-16T15:20:25.504Z,24.56
2018-07-16T15:22:54.242Z,26.15
2018-07-16T15:25:23.410Z,25.86
2018-07-16T15:27:52.358Z,25.97
2018-07-16T15:30:21.617Z,25.65
2018-07-16T15:32:50.780Z,26.94
2018-07-16T15:35:19.782Z,26.75
2018-07-16T15:37:48.596Z,26.58
2018-07-16T15:40:17.654Z,25.69
2018-07-16T15:42:46.595Z,26.67
2018-07-16T15:45:15.602Z,27.55
2018-07-16T15:47:44.939Z,26.85
2018-07-16T15:50:14.170Z,28.13
2018-07-16T15:52:43.055Z,27.48
2018-07-16T15:55:12.314Z,27.45
2018-07-16T15:57:41.130Z,27.02
2018-07-16T16:00:10.487Z,28.19
2018-07-16T16:02:39.460Z,29.29
2018-07-16T16:05:08.881Z,29.06
2018-07-16T16:07:37.739Z,28.30
2018-07-16T16:10:07.086Z,29.63
2018-07-16T16:12:36.251Z,29.92
2018-07-16T16:15:05.588Z,28.81
2018-07-16T16:17:34.521Z,29.27
2018-07-16T16:20:03.871Z,30.36
2018-07-16T16:22:33.230Z,30.71
2018-07-16T16:25:02.354Z,31.22
2018-07-16T16:27:31.285Z,31.36
2018-07-16T16:30:00.448Z,31.45
2018-07-16T16:32:29.296Z,31.53
2018-07-16T16:34:58.020Z,31.29
2018-07-16T16:37:27.202Z,31.31
2018-07-16T16:39:55.976Z,30.93
2018-07-16T16:42:25.007Z,31.89
2018-07-16T16:44:54.091Z,32.57
2018-07-16T16:47:23.292Z,32.80
2018-07-16T16:49:52.335Z,32.95
2018-07-16T16:52:21.786Z,32.97
2018-07-16T16:54:51.025Z,33.71
2018-07-16T16:57:20.085Z,34.62
2018-07-16T16:59:48.782Z,35.35
2018-07-16T17:02:17.891Z,35.38
2018-07-16T17:04:46.795Z,38.29
2018-07-16T17:07:15.977Z,38.14
2018-07-16T17:09:45.539Z,39.42
2018-07-16T17:12:14.794Z,39.97
2018-07-16T17:14:43.926Z,41.39
2018-07-16T17:17:12.814Z,40.57
2018-07-16T17:19:41.598Z,40.94
2018-07-16T17:22:10.869Z,42.66
2018-07-16T17:24:39.877Z,42.94
2018-07-16T17:27:09.147Z,43.65
2018-07-16T17:29:38.514Z,44.11
2018-07-16T17:32:07.671Z,45.70
2018-07-16T17:34:36.912Z,45.78
2018-07-16T17:37:06.096Z,43.88
2018-07-16T17:39:35.366Z,44.48
2018-07-16T17:42:04.435Z,45.68
2018-07-16T17:44:33.466Z,44.76
2018-07-16T17:47:02.604Z,44.93
2018-07-16T17:49:31.897Z,45.89
2018-07-16T17:52:00.770Z,45.20
2018-07-16T17:54:29.702Z,45.04
2018-07-16T17:56:58.939Z,44.83
2018-07-16T17:59:28.028Z,46.27
2018-07-16T18:01:57.276Z,44.25
2018-07-16T18:04:26.363Z,44.13
2018-07-16T18:06:55.433Z,44.38
2018-07-16T18:09:24.510Z,44.81
2018-07-16T18:11:53.635Z,44.67
2018-07-16T18:14:22.670Z,44.54
2018-07-16T18:16:51.866Z,45.33
2018-07-16T18:19:21.003Z,45.53
2018-07-16T18:21:50.191Z,45.48
2018-07-16T18:24:19.072Z,46.52
2018-07-16T18:26:48.283Z,46.02
2018-07-16T18:29:17.482Z,46.70
2018-07-16T18:31:46.729Z,46.52
2018-07-16T18:34:15.951Z,46.31
2018-07-16T18:36:45.252Z,46.35
2018-07-16T18:39:14.394Z,46.82
2018-07-16T18:41:43.446Z,45.69
2018-07-16T18:44:12.526Z,45.41
2018-07-16T18:46:41.620Z,46.37
2018-07-16T18:49:10.830Z,43.89
2018-07-16T18:51:39.964Z,42.34
2018-07-16T18:54:09.087Z,40.92
2018-07-16T18:56:38.200Z,41.49
2018-07-16T18:59:07.434Z,41.81
2018-07-16T19:01:36.530Z,41.21
2018-07-16T19:04:05.943Z,41.64
2018-07-16T19:06:35.005Z,40.56
2018-07-16T19:09:04.383Z,40.72
2018-07-16T19:11:33.543Z,40.95
2018-07-16T19:14:02.616Z,39.44
2018-07-16T19:16:31.766Z,39.63
2018-07-16T19:19:01.774Z,39.45
2018-07-16T19:21:31.251Z,39.88
2018-07-16T19:24:00.568Z,39.68
2018-07-16T19:26:29.395Z,40.15
2018-07-16T19:28:58.543Z,41.88
2018-07-16T19:31:27.816Z,43.46
2018-07-16T19:33:56.939Z,43.02
2018-07-16T19:36:26.637Z,44.25
2018-07-16T19:38:55.906Z,43.95
2018-07-16T19:41:25.066Z,43.77
2018-07-16T19:43:55.874Z,42.98
2018-07-16T19:46:25.044Z,42.95
2018-07-16T19:48:54.200Z,43.23
2018-07-16T19:51:23.502Z,44.08
2018-07-16T19:53:52.615Z,45.91
2018-07-16T19:56:21.836Z,46.19
2018-07-16T19:58:51.160Z,46.20
2018-07-16T20:01:20.383Z,48.19
2018-07-16T20:03:49.256Z,48.45
2018-07-16T20:06:18.554Z,46.89
2018-07-16T20:08:47.787Z,47.92
2018-07-16T20:11:16.567Z,48.24
2018-07-16T20:13:45.786Z,49.09
2018-07-16T20:16:15.043Z,48.98
2018-07-16T20:18:44.242Z,49.73
2018-07-16T20:21:13.529Z,49.46
2018-07-16T20:23:42.300Z,47.98
2018-07-16T20:26:11.876Z,48.56
2018-07-16T20:28:41.138Z,48.83
2018-07-16T20:31:10.420Z,48.89
2018-07-16T20:33:39.941Z,50.31
2018-07-16T20:36:09.099Z,50.69
2018-07-16T20:38:38.374Z,49.69
2018-07-16T20:41:07.246Z,50.32
2018-07-16T20:43:36.405Z,49.71
2018-07-16T20:46:05.390Z,49.61
2018-07-16T20:48:34.374Z,48.02
2018-07-16T20:51:03.737Z,46.78
2018-07-16T20:53:33.004Z,47.59
2018-07-16T20:56:02.053Z,46.93
2018-07-16T20:58:30.994Z,46.63
2018-07-16T21:01:00.344Z,46.94
2018-07-16T21:03:29.315Z,48.08
2018-07-16T21:05:58.545Z,47.57
2018-07-16T21:08:27.736Z,45.98
2018-07-16T21:10:56.700Z,45.84
2018-07-16T21:13:25.495Z,44.50
2018-07-16T21:15:54.477Z,44.79
2018-07-16T21:18:23.671Z,45.36
2018-07-16T21:20:52.725Z,43.75
2018-07-16T21:23:21.898Z,43.36
2018-07-16T21:25:50.691Z,43.79
2018-07-16T21:28:19.865Z,43.12
2018-07-16T21:30:48.867Z,42.99
2018-07-16T21:33:17.845Z,42.20
2018-07-16T21:35:46.994Z,43.24
2018-07-16T21:38:16.053Z,42.74
2018-07-16T21:40:45.447Z,42.57
2018-07-16T21:43:14.178Z,42.21
2018-07-16T21:45:43.494Z,41.67
2018-07-16T21:48:12.641Z,42.51
2018-07-16T21:50:41.966Z,41.70
2018-07-16T21:53:11.298Z,41.41
2018-07-16T21:55:40.434Z,41.25
2018-07-16T21:58:09.521Z,42.21
2018-07-16T22:00:38.596Z,42.54
2018-07-16T22:03:07.765Z,41.34
2018-07-16T22:05:36.663Z,42.19
2018-07-16T22:08:05.812Z,41.52
2018-07-16T22:10:34.915Z,42.68
2018-07-16T22:13:04.240Z,42.64
2018-07-16T22:15:33.264Z,44.09
2018-07-16T22:18:02.447Z,45.00
2018-07-16T22:20:31.403Z,44.86
2018-07-16T22:23:00.360Z,45.23
2018-07-16T22:25:29.274Z,45.99
2018-07-16T22:27:58.137Z,46.45
2018-07-16T22:30:27.256Z,47.09
2018-07-16T22:32:56.550Z,47.34
2018-07-16T22:35:25.585Z,48.06
2018-07-16T22:37:54.894Z,48.78
2018-07-16T22:40:23.648Z,49.22
2018-07-16T22:42:52.664Z,49.38
2018-07-16T22:45:21.779Z,48.75
2018-07-16T22:47:51.034Z,48.88
2018-07-16T22:50:20.137Z,49.97
2018-07-16T22:52:49.277Z,50.12
2018-07-16T22:55:18.014Z,50.06
2018-07-16T22:57:47.018Z,50.41
2018-07-16T23:00:16.162Z,49.50
2018-07-16T23:02:45.590Z,50.13
2018-07-16T23:05:14.779Z,51.21
2018-07-16T23:07:43.987Z,51.72
2018-07-16T23:10:13.161Z,51.73
2018-07-16T23:12:42.139Z,50.98
2018-07-16T23:15:11.255Z,52.12
2018-07-16T23:17:40.406Z,50.71
2018-07-16T23:20:09.488Z,51.48
2018-07-16T23:22:48.601Z,51.15
2018-07-16T23:25:17.798Z,51.64
2018-07-16T23:27:47.158Z,51.32
2018-07-16T23:30:16.481Z,51.01
2018-07-16T23:32:45.758Z,52.02
2018-07-16T23:35:15.153Z,50.72
2018-07-16T23:37:44.407Z,52.31
2018-07-16T23:40:13.596Z,51.67
2018-07-16T23:42:42.746Z,51.94
2018-07-16T23:45:12.004Z,52.29
2018-07-16T23:47:40.948Z,51.71
2018-07-16T23:50:10.246Z,52.34
2018-07-16T23:52:39.011Z,53.24
2018-07-16T23:55:08.330Z,52.87
2018-07-16T23:57:37.464Z,52.75
